Kim Morgan Mortensen bestod mørkeutsjekk PDF Skriv ut E-post
Skrevet av Morten Borgen   
torsdag 18. oktober 2018 21:35

Flyskolen gratulerer Kim Morgan Mortensen med vellykket mørkeflygingskurs og bestått skolesjekk i dag torsdag 18.oktober. Han blir derfor vårt nyeste medlem med rykende fersk nattrettighet i sertifikatet. Skolen ønsker han lykke til videre med flygingen.

Morten / Skolesjef

 
 
METAR
2019/01/18 19:20 ENCN 181920Z 21011KT CAVOK 00/M04 Q1013
TAF
2019/01/18 18:36 TAF TAF ENCN 181700Z 1818/1822 29005KT CAVOK
LN-KFK
Til service
VFR dag
08:11 - 17:06
Brannvakt
Inaktiv
Banner
Banner
Banner
Banner
Banner